createdAt,value
2023-05-21T00:02:00.281Z,100.00
2023-05-21T00:04:30.039Z,100.00
2023-05-21T00:07:00.061Z,100.00
2023-05-21T00:09:27.435Z,100.00
2023-05-21T00:11:54.909Z,100.00
2023-05-21T00:14:22.556Z,100.00
2023-05-21T00:16:49.534Z,100.00
2023-05-21T00:19:17.421Z,100.00
2023-05-21T00:21:46.058Z,100.00
2023-05-21T00:24:13.459Z,100.00
2023-05-21T00:26:40.881Z,100.00
2023-05-21T00:29:08.334Z,100.00
2023-05-21T00:31:35.416Z,100.00
2023-05-21T00:34:03.069Z,100.00
2023-05-21T00:36:31.049Z,100.00
2023-05-21T00:38:58.293Z,100.00
2023-05-21T00:41:26.372Z,100.00
2023-05-21T00:43:53.727Z,100.00
2023-05-21T00:46:21.686Z,100.00
2023-05-21T00:48:49.739Z,100.00
2023-05-21T00:51:18.713Z,100.00
2023-05-21T00:53:46.848Z,100.00
2023-05-21T00:56:14.224Z,100.00
2023-05-21T00:58:42.154Z,100.00
2023-05-21T01:01:13.883Z,100.00
2023-05-21T01:03:42.635Z,100.00
2023-05-21T01:06:10.760Z,100.00
2023-05-21T01:08:40.987Z,100.00
2023-05-21T01:11:09.984Z,100.00
2023-05-21T01:13:40.048Z,100.00
2023-05-21T01:16:09.000Z,100.00
2023-05-21T01:18:38.293Z,100.00
2023-05-21T01:21:07.598Z,100.00
2023-05-21T01:23:35.107Z,100.00
2023-05-21T01:26:02.610Z,100.00
2023-05-21T01:28:34.587Z,100.00
2023-05-21T01:31:08.270Z,100.00
2023-05-21T01:33:43.914Z,100.00
2023-05-21T01:36:22.108Z,100.00
2023-05-21T01:39:04.483Z,100.00
2023-05-21T01:41:35.403Z,100.00
2023-05-21T01:44:04.453Z,100.00
2023-05-21T01:46:34.053Z,100.00
2023-05-21T01:49:01.536Z,100.00
2023-05-21T01:51:28.840Z,100.00
2023-05-21T01:53:56.192Z,100.00
2023-05-21T01:56:26.114Z,100.00
2023-05-21T01:58:57.011Z,100.00
2023-05-21T02:01:24.175Z,100.00
2023-05-21T02:03:51.787Z,100.00
2023-05-21T02:06:18.904Z,100.00
2023-05-21T02:08:46.434Z,100.00
2023-05-21T02:11:13.411Z,100.00
2023-05-21T02:13:42.699Z,100.00
2023-05-21T02:16:15.241Z,100.00
2023-05-21T02:18:46.630Z,100.00
2023-05-21T02:21:13.946Z,100.00
2023-05-21T02:23:42.803Z,100.00
2023-05-21T02:26:09.980Z,100.00
2023-05-21T02:28:37.529Z,100.00
2023-05-21T02:31:04.689Z,100.00
2023-05-21T02:33:32.272Z,100.00
2023-05-21T02:35:59.183Z,100.00
2023-05-21T02:38:26.797Z,100.00
2023-05-21T02:40:53.879Z,100.00
2023-05-21T02:43:21.376Z,100.00
2023-05-21T02:45:48.291Z,100.00
2023-05-21T02:48:16.058Z,100.00
2023-05-21T02:50:43.049Z,100.00
2023-05-21T02:53:10.231Z,100.00
2023-05-21T02:55:37.961Z,100.00
2023-05-21T02:58:05.593Z,100.00
2023-05-21T03:00:32.781Z,100.00
2023-05-21T03:03:00.476Z,100.00
2023-05-21T03:05:27.444Z,100.00
2023-05-21T03:07:55.029Z,100.00
2023-05-21T03:10:22.159Z,100.00
2023-05-21T03:12:49.497Z,100.00
2023-05-21T03:15:16.582Z,100.00
2023-05-21T03:17:44.609Z,100.00
2023-05-21T03:20:16.700Z,100.00
2023-05-21T03:22:44.868Z,100.00
2023-05-21T03:25:12.938Z,100.00
2023-05-21T03:27:40.541Z,100.00
2023-05-21T03:30:08.138Z,100.00
2023-05-21T03:32:38.139Z,100.00
2023-05-21T03:35:06.012Z,100.00
2023-05-21T03:37:33.260Z,100.00
2023-05-21T03:40:00.891Z,100.00
2023-05-21T03:42:28.189Z,100.00
2023-05-21T03:44:55.257Z,100.00
2023-05-21T03:47:23.048Z,100.00
2023-05-21T03:49:50.203Z,100.00
2023-05-21T03:52:17.456Z,100.00
2023-05-21T03:54:44.757Z,100.00
2023-05-21T03:57:12.136Z,100.00
2023-05-21T03:59:39.088Z,100.00
2023-05-21T04:02:07.089Z,100.00
2023-05-21T04:04:34.083Z,100.00
2023-05-21T04:07:01.397Z,100.00
2023-05-21T04:09:29.061Z,100.00
2023-05-21T04:11:56.563Z,100.00
2023-05-21T04:14:24.010Z,100.00
2023-05-21T04:16:51.817Z,100.00
2023-05-21T04:19:19.179Z,100.00
2023-05-21T04:21:46.658Z,100.00
2023-05-21T04:24:14.063Z,100.00
2023-05-21T04:26:42.675Z,100.00
2023-05-21T04:29:10.264Z,100.00
2023-05-21T04:31:37.881Z,100.00
2023-05-21T04:34:05.272Z,100.00
2023-05-21T04:36:34.099Z,100.00
2023-05-21T04:39:01.937Z,100.00
2023-05-21T04:41:29.267Z,100.00
2023-05-21T04:43:56.345Z,100.00
2023-05-21T04:46:25.606Z,100.00
2023-05-21T04:48:55.315Z,100.00
2023-05-21T04:51:24.928Z,100.00
2023-05-21T04:53:52.302Z,100.00
2023-05-21T04:56:19.727Z,100.00
2023-05-21T04:58:48.099Z,100.00
2023-05-21T05:01:16.442Z,100.00
2023-05-21T05:03:43.742Z,100.00
2023-05-21T05:06:10.994Z,100.00
2023-05-21T05:08:38.320Z,100.00
2023-05-21T05:11:05.681Z,100.00
2023-05-21T05:13:32.619Z,100.00
2023-05-21T05:16:00.539Z,100.00
2023-05-21T05:18:27.560Z,100.00
2023-05-21T05:20:54.956Z,100.00
2023-05-21T05:23:22.087Z,100.00
2023-05-21T05:25:49.644Z,100.00
2023-05-21T05:28:16.998Z,100.00
2023-05-21T05:30:44.760Z,100.00
2023-05-21T05:33:12.170Z,100.00
2023-05-21T05:35:39.466Z,100.00
2023-05-21T05:38:09.175Z,100.00
2023-05-21T05:40:36.852Z,100.00
2023-05-21T05:43:04.169Z,100.00
2023-05-21T05:45:31.586Z,100.00
2023-05-21T05:47:58.749Z,100.00
2023-05-21T05:50:26.782Z,100.00
2023-05-21T05:52:53.977Z,100.00
2023-05-21T05:55:22.202Z,100.00
2023-05-21T05:57:49.346Z,100.00
2023-05-21T06:00:17.593Z,100.00
2023-05-21T06:02:44.919Z,100.00
2023-05-21T06:05:12.352Z,100.00
2023-05-21T06:07:40.764Z,100.00
2023-05-21T06:10:08.709Z,100.00
2023-05-21T06:12:35.867Z,100.00
2023-05-21T06:15:03.588Z,100.00
2023-05-21T06:17:31.873Z,100.00
2023-05-21T06:19:59.611Z,100.00
2023-05-21T06:22:26.777Z,100.00
2023-05-21T06:24:54.096Z,100.00
2023-05-21T06:27:21.092Z,100.00
2023-05-21T06:29:48.497Z,100.00
2023-05-21T06:32:15.545Z,100.00
2023-05-21T06:34:42.906Z,100.00
2023-05-21T06:37:10.245Z,100.00
2023-05-21T06:39:37.644Z,100.00
2023-05-21T06:42:04.792Z,100.00
2023-05-21T06:44:32.316Z,100.00
2023-05-21T06:46:59.466Z,100.00
2023-05-21T06:49:26.791Z,100.00
2023-05-21T06:51:54.035Z,100.00
2023-05-21T06:54:21.318Z,100.00
2023-05-21T06:56:48.544Z,100.00
2023-05-21T06:59:16.930Z,100.00
2023-05-21T07:01:44.621Z,100.00
2023-05-21T07:04:12.576Z,100.00
2023-05-21T07:06:40.231Z,100.00
2023-05-21T07:09:07.754Z,100.00
2023-05-21T07:11:35.232Z,100.00
2023-05-21T07:14:04.137Z,100.00
2023-05-21T07:16:31.456Z,100.00
2023-05-21T07:18:59.034Z,100.00
2023-05-21T07:21:26.308Z,100.00
2023-05-21T07:23:54.229Z,100.00
2023-05-21T07:26:21.804Z,100.00
2023-05-21T07:28:49.370Z,100.00
2023-05-21T07:31:16.854Z,100.00
2023-05-21T07:33:44.596Z,100.00
2023-05-21T07:36:12.024Z,100.00
2023-05-21T07:38:40.366Z,100.00
2023-05-21T07:41:07.479Z,100.00
2023-05-21T07:43:35.585Z,100.00
2023-05-21T07:46:03.203Z,100.00
2023-05-21T07:48:30.572Z,100.00
2023-05-21T07:50:58.850Z,100.00
2023-05-21T07:53:26.249Z,100.00
2023-05-21T07:55:53.591Z,100.00
2023-05-21T07:58:21.093Z,100.00
2023-05-21T08:00:48.448Z,100.00
2023-05-21T08:03:18.196Z,98.19
2023-05-21T08:05:50.957Z,96.25
2023-05-21T08:08:19.611Z,97.32
2023-05-21T08:10:48.095Z,96.50
2023-05-21T08:13:16.674Z,95.77
2023-05-21T08:15:44.232Z,92.22
2023-05-21T08:18:12.193Z,92.35
2023-05-21T08:20:39.436Z,91.48
2023-05-21T08:23:07.144Z,90.57
2023-05-21T08:25:34.973Z,93.12
2023-05-21T08:28:02.982Z,91.83
2023-05-21T08:32:57.649Z,90.45
2023-05-21T08:35:24.999Z,91.92
2023-05-21T08:37:52.760Z,88.50
2023-05-21T08:40:20.098Z,87.88
2023-05-21T08:42:51.129Z,86.85
2023-05-21T08:45:22.691Z,83.89
2023-05-21T08:47:59.627Z,81.76
2023-05-21T08:50:28.064Z,82.02
2023-05-21T08:52:55.769Z,83.81
2023-05-21T08:55:23.813Z,83.36
2023-05-21T08:57:51.242Z,81.56
2023-05-21T09:00:20.832Z,78.93
2023-05-21T09:02:48.229Z,77.00
2023-05-21T09:05:15.941Z,77.83
2023-05-21T09:07:49.816Z,78.40
2023-05-21T09:10:24.516Z,73.08
2023-05-21T09:12:51.974Z,73.35
2023-05-21T09:15:19.286Z,73.57
2023-05-21T09:17:48.379Z,73.66
2023-05-21T09:20:18.976Z,73.30
2023-05-21T09:22:48.336Z,71.41
2023-05-21T09:25:21.793Z,71.41
2023-05-21T09:27:49.326Z,68.55
2023-05-21T09:30:18.119Z,65.59
2023-05-21T09:32:46.711Z,65.94
2023-05-21T09:35:15.835Z,67.86
2023-05-21T09:37:45.355Z,68.84
2023-05-21T09:40:20.227Z,70.64
2023-05-21T09:42:52.551Z,70.59
2023-05-21T09:45:20.679Z,67.90
2023-05-21T09:47:49.391Z,68.13
2023-05-21T09:50:28.141Z,67.19
2023-05-21T09:52:56.274Z,64.72
2023-05-21T09:55:24.398Z,66.88
2023-05-21T09:57:52.166Z,63.65
2023-05-21T10:00:23.914Z,63.54
2023-05-21T10:02:56.090Z,65.67
2023-05-21T10:05:29.687Z,63.12
2023-05-21T10:08:04.865Z,63.39
2023-05-21T10:10:32.741Z,64.59
2023-05-21T10:13:09.453Z,63.20
2023-05-21T10:15:43.349Z,62.84
2023-05-21T10:18:12.589Z,62.84
2023-05-21T10:20:40.402Z,63.07
2023-05-21T10:23:08.088Z,62.48
2023-05-21T10:25:35.774Z,61.47
2023-05-21T10:28:03.382Z,62.54
2023-05-21T10:30:30.405Z,62.21
2023-05-21T10:32:58.823Z,61.00
2023-05-21T10:35:26.226Z,59.60
2023-05-21T10:37:54.840Z,60.42
2023-05-21T10:40:22.130Z,61.76
2023-05-21T10:43:23.478Z,61.07
2023-05-21T10:46:17.216Z,61.34
2023-05-21T10:49:09.139Z,59.62
2023-05-21T10:52:18.514Z,57.52
2023-05-21T10:55:01.389Z,55.02
2023-05-21T10:58:13.553Z,53.04
2023-05-21T11:00:42.875Z,55.67
2023-05-21T11:03:13.120Z,56.62
2023-05-21T11:05:42.599Z,57.87
2023-05-21T11:08:25.235Z,57.08
2023-05-21T11:10:58.470Z,54.64
2023-05-21T11:13:27.056Z,54.31
2023-05-21T11:16:01.522Z,56.21
2023-05-21T11:18:40.438Z,56.79
2023-05-21T11:21:14.849Z,57.07
2023-05-21T11:23:51.518Z,56.86
2023-05-21T11:26:21.934Z,53.53
2023-05-21T11:29:08.754Z,49.97
2023-05-21T11:31:39.990Z,50.65
2023-05-21T11:34:14.334Z,53.61
2023-05-21T11:36:48.131Z,52.37
2023-05-21T11:39:18.150Z,54.95
2023-05-21T11:41:52.463Z,53.65
2023-05-21T11:44:22.329Z,52.78
2023-05-21T11:46:50.012Z,48.30
2023-05-21T11:49:28.659Z,49.83
2023-05-21T11:51:56.733Z,50.27
2023-05-21T11:54:26.181Z,51.01
2023-05-21T11:56:54.987Z,51.70
2023-05-21T11:59:21.967Z,51.77
2023-05-21T12:01:49.292Z,48.21
2023-05-21T12:04:16.392Z,50.25
2023-05-21T12:06:43.964Z,50.79
2023-05-21T12:09:11.521Z,50.88
2023-05-21T12:11:41.952Z,52.01
2023-05-21T12:14:10.585Z,52.33
2023-05-21T12:16:39.569Z,52.75
2023-05-21T12:19:07.173Z,53.99
2023-05-21T12:21:35.857Z,51.64
2023-05-21T12:24:03.466Z,53.93
2023-05-21T12:26:33.325Z,54.32
2023-05-21T12:29:00.585Z,51.52
2023-05-21T12:31:31.130Z,53.94
2023-05-21T12:33:58.569Z,55.60
2023-05-21T12:36:31.867Z,56.62
2023-05-21T12:38:59.082Z,58.26
2023-05-21T12:41:27.024Z,58.80
2023-05-21T12:43:53.979Z,57.23
2023-05-21T12:46:23.458Z,59.69
2023-05-21T12:48:54.022Z,58.11
2023-05-21T12:51:21.393Z,57.50
2023-05-21T12:53:48.983Z,59.62
2023-05-21T12:56:17.147Z,57.06
2023-05-21T12:58:50.470Z,57.15
2023-05-21T13:01:18.640Z,58.54
2023-05-21T13:03:45.821Z,53.45
2023-05-21T13:06:13.446Z,54.28
2023-05-21T13:08:40.707Z,56.09
2023-05-21T13:11:08.037Z,58.06
2023-05-21T13:13:35.032Z,58.36
2023-05-21T13:16:02.488Z,58.58
2023-05-21T13:18:29.545Z,57.63
2023-05-21T13:20:56.986Z,55.99
2023-05-21T13:23:24.918Z,56.80
2023-05-21T13:25:52.427Z,55.24
2023-05-21T13:28:19.632Z,58.23
2023-05-21T13:30:47.334Z,57.78
2023-05-21T13:33:14.714Z,55.82
2023-05-21T13:35:42.096Z,56.43
2023-05-21T13:38:09.737Z,56.53
2023-05-21T13:40:39.036Z,54.67
2023-05-21T13:43:06.752Z,55.20
2023-05-21T13:45:34.862Z,52.41
2023-05-21T13:48:01.964Z,51.96
2023-05-21T13:50:29.665Z,52.36
2023-05-21T13:52:57.111Z,50.59
2023-05-21T13:55:24.383Z,50.29
2023-05-21T13:57:51.692Z,51.29
2023-05-21T14:00:19.258Z,51.80
2023-05-21T14:02:46.343Z,50.09
2023-05-21T14:05:14.350Z,50.36
2023-05-21T14:07:42.344Z,51.04
2023-05-21T14:10:09.983Z,51.16
2023-05-21T14:12:38.630Z,51.60
2023-05-21T14:15:06.894Z,52.42
2023-05-21T14:17:33.973Z,52.30
2023-05-21T14:20:01.244Z,52.14
2023-05-21T14:22:28.612Z,49.12
2023-05-21T14:24:56.377Z,50.87
2023-05-21T14:27:23.450Z,50.52
2023-05-21T14:29:51.186Z,50.18
2023-05-21T14:32:19.377Z,50.66
2023-05-21T14:34:46.706Z,50.60
2023-05-21T14:37:14.171Z,51.25
2023-05-21T14:39:41.461Z,49.92
2023-05-21T14:42:08.527Z,50.12
2023-05-21T14:44:36.227Z,49.95
2023-05-21T14:47:03.538Z,50.02
2023-05-21T14:49:31.105Z,48.96
2023-05-21T14:51:58.526Z,50.83
2023-05-21T14:54:25.892Z,51.00
2023-05-21T14:56:53.646Z,50.03
2023-05-21T14:59:21.125Z,50.90
2023-05-21T15:01:48.249Z,50.79
2023-05-21T15:04:15.655Z,50.47
2023-05-21T15:06:42.998Z,51.17
2023-05-21T15:09:10.793Z,52.60
2023-05-21T15:11:39.902Z,52.18
2023-05-21T15:14:07.350Z,52.44
2023-05-21T15:16:34.460Z,52.52
2023-05-21T15:19:01.894Z,51.83
2023-05-21T15:21:29.819Z,53.28
2023-05-21T15:23:57.144Z,51.34
2023-05-21T15:26:25.687Z,51.44
2023-05-21T15:28:53.300Z,49.43
2023-05-21T15:31:20.385Z,48.89
2023-05-21T15:33:47.884Z,47.11
2023-05-21T15:36:15.561Z,47.21
2023-05-21T15:38:42.810Z,46.68
2023-05-21T15:41:09.914Z,45.87
2023-05-21T15:43:38.429Z,44.90
2023-05-21T15:46:05.653Z,44.13
2023-05-21T15:48:33.076Z,43.21
2023-05-21T15:51:00.599Z,41.38
2023-05-21T15:53:27.907Z,40.00
2023-05-21T15:55:54.950Z,41.20
2023-05-21T15:58:23.041Z,40.10
2023-05-21T16:00:50.109Z,39.65
2023-05-21T16:03:17.516Z,38.42
2023-05-21T16:05:44.875Z,38.58
2023-05-21T16:08:12.392Z,37.78
2023-05-21T16:10:40.146Z,37.54
2023-05-21T16:13:08.211Z,39.11
2023-05-21T16:15:35.335Z,40.28
2023-05-21T16:18:03.136Z,40.60
2023-05-21T16:20:31.166Z,39.01
2023-05-21T16:22:58.589Z,37.63
2023-05-21T16:25:25.758Z,38.07
2023-05-21T16:27:54.812Z,37.95
2023-05-21T16:30:21.928Z,37.99
2023-05-21T16:32:49.526Z,39.41
2023-05-21T16:35:17.362Z,40.51
2023-05-21T16:37:45.138Z,39.72
2023-05-21T16:40:13.149Z,38.83
2023-05-21T16:42:40.896Z,38.60
2023-05-21T16:45:08.930Z,39.92
2023-05-21T16:47:38.873Z,42.12
2023-05-21T16:50:07.329Z,41.07
2023-05-21T16:52:35.105Z,40.85
2023-05-21T16:55:02.701Z,43.76
2023-05-21T16:57:30.492Z,41.90
2023-05-21T16:59:57.827Z,41.07
2023-05-21T17:02:25.692Z,42.96
2023-05-21T17:04:53.123Z,43.34
2023-05-21T17:07:20.956Z,43.83
2023-05-21T17:09:48.674Z,44.27
2023-05-21T17:12:16.430Z,45.42
2023-05-21T17:14:43.636Z,44.81
2023-05-21T17:17:11.209Z,44.72
2023-05-21T17:19:43.931Z,46.32
2023-05-21T17:22:13.832Z,45.26
2023-05-21T17:24:41.416Z,44.83
2023-05-21T17:27:09.004Z,45.83
2023-05-21T17:29:36.456Z,47.62
2023-05-21T17:32:07.468Z,48.56
2023-05-21T17:34:34.809Z,50.38
2023-05-21T17:37:02.836Z,49.07
2023-05-21T17:39:30.029Z,51.55
2023-05-21T17:41:57.613Z,53.46
2023-05-21T17:44:24.799Z,56.98
2023-05-21T17:46:53.091Z,58.66
2023-05-21T17:49:20.098Z,60.74
2023-05-21T17:51:48.211Z,62.20
2023-05-21T17:54:15.990Z,63.95
2023-05-21T17:56:45.518Z,65.25
2023-05-21T17:59:14.758Z,65.46
2023-05-21T18:01:42.395Z,66.91
2023-05-21T18:04:11.008Z,67.60
2023-05-21T18:06:41.617Z,69.14
2023-05-21T18:09:10.652Z,70.50
2023-05-21T18:11:39.247Z,72.01
2023-05-21T18:14:06.300Z,72.45
2023-05-21T18:16:33.900Z,72.81
2023-05-21T18:19:05.765Z,74.86
2023-05-21T18:21:35.857Z,75.55
2023-05-21T18:24:03.398Z,75.79
2023-05-21T18:26:30.815Z,77.11
2023-05-21T18:28:58.493Z,78.94
2023-05-21T18:31:26.121Z,79.08
2023-05-21T18:33:53.331Z,80.37
2023-05-21T18:36:20.572Z,81.57
2023-05-21T18:38:48.513Z,82.74
2023-05-21T18:41:16.156Z,83.59
2023-05-21T18:43:43.201Z,83.78
2023-05-21T18:46:11.041Z,85.36
2023-05-21T18:48:38.250Z,84.99
2023-05-21T18:51:05.565Z,86.40
2023-05-21T18:53:33.132Z,86.82
2023-05-21T18:56:00.528Z,86.87
2023-05-21T18:58:29.349Z,87.45
2023-05-21T19:00:57.020Z,87.21
2023-05-21T19:03:24.062Z,88.33
2023-05-21T19:05:51.620Z,89.19
2023-05-21T19:08:18.807Z,89.82
2023-05-21T19:10:46.236Z,90.58
2023-05-21T19:13:13.420Z,91.60
2023-05-21T19:15:41.110Z,91.70
2023-05-21T19:18:08.753Z,91.76
2023-05-21T19:20:37.080Z,91.79
2023-05-21T19:23:04.711Z,92.98
2023-05-21T19:25:32.503Z,91.40
2023-05-21T19:28:00.954Z,92.32
2023-05-21T19:30:28.474Z,92.79
2023-05-21T19:32:56.545Z,92.88
2023-05-21T19:35:23.963Z,93.49
2023-05-21T19:37:51.820Z,93.74
2023-05-21T19:40:19.361Z,93.94
2023-05-21T19:42:46.685Z,94.36
2023-05-21T19:45:15.662Z,94.02
2023-05-21T19:47:43.556Z,93.66
2023-05-21T19:50:11.927Z,92.36
2023-05-21T19:52:39.624Z,93.78
2023-05-21T19:55:08.894Z,94.23
2023-05-21T19:57:39.839Z,94.20
2023-05-21T20:00:10.574Z,94.61
2023-05-21T20:02:37.717Z,94.73
2023-05-21T20:05:05.480Z,94.61
2023-05-21T20:07:32.968Z,95.12
2023-05-21T20:10:01.085Z,96.26
2023-05-21T20:12:28.465Z,95.60
2023-05-21T20:14:56.980Z,95.85
2023-05-21T20:17:24.809Z,95.68
2023-05-21T20:19:52.323Z,97.24
2023-05-21T20:22:19.776Z,96.78
2023-05-21T20:24:47.226Z,97.09
2023-05-21T20:27:19.675Z,98.23
2023-05-21T20:29:47.687Z,97.99
2023-05-21T20:32:14.763Z,97.97
2023-05-21T20:34:50.732Z,99.37
2023-05-21T20:37:29.255Z,100.00
2023-05-21T20:39:58.165Z,100.00
2023-05-21T20:42:28.652Z,100.00
2023-05-21T20:44:59.987Z,100.00
2023-05-21T20:47:30.260Z,100.00
2023-05-21T20:50:03.270Z,100.00
2023-05-21T20:52:31.035Z,100.00
2023-05-21T20:54:59.875Z,100.00
2023-05-21T20:57:28.678Z,100.00
2023-05-21T20:59:56.473Z,100.00
2023-05-21T21:02:23.684Z,100.00
2023-05-21T21:04:51.772Z,100.00
2023-05-21T21:07:19.349Z,100.00
2023-05-21T21:09:47.500Z,100.00
2023-05-21T21:12:25.938Z,100.00
2023-05-21T21:14:54.217Z,100.00
2023-05-21T21:17:22.251Z,100.00
2023-05-21T21:19:49.822Z,100.00
2023-05-21T21:22:18.414Z,100.00
2023-05-21T21:24:46.306Z,100.00
2023-05-21T21:27:13.664Z,100.00
2023-05-21T21:29:41.059Z,100.00
2023-05-21T21:32:08.712Z,100.00
2023-05-21T21:34:36.145Z,100.00
2023-05-21T21:37:03.240Z,100.00
2023-05-21T21:39:31.197Z,100.00
2023-05-21T21:41:58.263Z,100.00
2023-05-21T21:44:25.774Z,100.00
2023-05-21T21:46:53.209Z,100.00
2023-05-21T21:49:20.662Z,100.00
2023-05-21T21:51:48.593Z,100.00
2023-05-21T21:54:16.565Z,100.00
2023-05-21T21:56:43.617Z,100.00
2023-05-21T21:59:10.979Z,100.00
2023-05-21T22:01:38.623Z,100.00
2023-05-21T22:04:06.077Z,100.00
2023-05-21T22:06:33.259Z,100.00
2023-05-21T22:09:01.510Z,100.00
2023-05-21T22:11:28.614Z,100.00
2023-05-21T22:13:56.275Z,100.00
2023-05-21T22:16:27.881Z,100.00
2023-05-21T22:18:55.355Z,100.00
2023-05-21T22:21:27.308Z,100.00
2023-05-21T22:23:55.882Z,100.00
2023-05-21T22:26:23.393Z,100.00
2023-05-21T22:28:51.565Z,100.00
2023-05-21T22:31:19.250Z,100.00
2023-05-21T22:33:46.913Z,100.00
2023-05-21T22:36:13.947Z,100.00
2023-05-21T22:38:41.603Z,100.00
2023-05-21T22:41:08.889Z,100.00
2023-05-21T22:43:37.251Z,100.00
2023-05-21T22:46:04.685Z,100.00
2023-05-21T22:48:32.054Z,100.00
2023-05-21T22:51:02.037Z,100.00
2023-05-21T22:53:29.908Z,100.00
2023-05-21T22:55:56.906Z,100.00
2023-05-21T22:58:24.169Z,100.00
2023-05-21T23:00:51.451Z,100.00
2023-05-21T23:03:18.844Z,100.00
2023-05-21T23:05:46.318Z,100.00
2023-05-21T23:08:14.157Z,100.00
2023-05-21T23:10:41.479Z,100.00
2023-05-21T23:13:09.089Z,100.00
2023-05-21T23:15:39.046Z,100.00
2023-05-21T23:18:07.976Z,100.00
2023-05-21T23:20:35.366Z,100.00
2023-05-21T23:23:03.186Z,100.00
2023-05-21T23:25:30.237Z,100.00
2023-05-21T23:27:57.493Z,100.00
2023-05-21T23:30:24.989Z,100.00
2023-05-21T23:32:52.333Z,100.00
2023-05-21T23:35:20.147Z,100.00
2023-05-21T23:37:47.897Z,100.00
2023-05-21T23:40:15.053Z,100.00
2023-05-21T23:42:42.552Z,100.00
2023-05-21T23:45:10.534Z,100.00
2023-05-21T23:47:37.791Z,100.00
2023-05-21T23:50:05.509Z,100.00
2023-05-21T23:52:33.484Z,100.00
2023-05-21T23:55:00.426Z,100.00
2023-05-21T23:57:27.664Z,100.00
2023-05-21T23:59:55.248Z,100.00
